sensor_id;sensor_type;location;lat;lon;timestamp;temperature;humidity
74364;DHT22;62797;49.740;10.154;2023-01-15T00:00:46;10.70;61.10
74364;DHT22;62797;49.740;10.154;2023-01-15T00:03:12;10.70;60.30
74364;DHT22;62797;49.740;10.154;2023-01-15T00:05:37;10.80;60.50
74364;DHT22;62797;49.740;10.154;2023-01-15T00:08:03;10.80;60.50
74364;DHT22;62797;49.740;10.154;2023-01-15T00:10:28;10.70;60.40
74364;DHT22;62797;49.740;10.154;2023-01-15T00:12:54;10.70;61.40
74364;DHT22;62797;49.740;10.154;2023-01-15T00:15:19;10.90;59.40
74364;DHT22;62797;49.740;10.154;2023-01-15T00:17:45;11.00;58.60
74364;DHT22;62797;49.740;10.154;2023-01-15T00:20:11;10.90;59.20
74364;DHT22;62797;49.740;10.154;2023-01-15T00:22:36;11.00;58.00
74364;DHT22;62797;49.740;10.154;2023-01-15T00:25:02;11.20;57.50
74364;DHT22;62797;49.740;10.154;2023-01-15T00:27:46;11.10;57.80
74364;DHT22;62797;49.740;10.154;2023-01-15T00:30:14;11.10;57.20
74364;DHT22;62797;49.740;10.154;2023-01-15T00:32:41;11.10;57.70
74364;DHT22;62797;49.740;10.154;2023-01-15T00:35:11;11.20;56.50
74364;DHT22;62797;49.740;10.154;2023-01-15T00:37:37;11.20;57.60
74364;DHT22;62797;49.740;10.154;2023-01-15T00:40:03;11.20;56.20
74364;DHT22;62797;49.740;10.154;2023-01-15T00:42:28;11.20;56.80
74364;DHT22;62797;49.740;10.154;2023-01-15T00:44:54;11.30;56.80
74364;DHT22;62797;49.740;10.154;2023-01-15T00:47:20;11.30;57.40
74364;DHT22;62797;49.740;10.154;2023-01-15T00:49:45;11.30;56.90
74364;DHT22;62797;49.740;10.154;2023-01-15T00:52:11;11.30;56.20
74364;DHT22;62797;49.740;10.154;2023-01-15T00:54:37;11.30;56.90
74364;DHT22;62797;49.740;10.154;2023-01-15T00:57:02;11.30;56.70
74364;DHT22;62797;49.740;10.154;2023-01-15T00:59:28;11.30;57.30
74364;DHT22;62797;49.740;10.154;2023-01-15T01:01:54;11.30;57.60
74364;DHT22;62797;49.740;10.154;2023-01-15T01:04:20;11.30;57.50
74364;DHT22;62797;49.740;10.154;2023-01-15T01:06:45;11.40;56.80
74364;DHT22;62797;49.740;10.154;2023-01-15T01:09:12;11.40;57.50
74364;DHT22;62797;49.740;10.154;2023-01-15T01:11:38;11.40;57.60
74364;DHT22;62797;49.740;10.154;2023-01-15T01:14:04;11.30;58.20
74364;DHT22;62797;49.740;10.154;2023-01-15T01:16:35;11.30;58.10
74364;DHT22;62797;49.740;10.154;2023-01-15T01:19:08;11.30;58.80
74364;DHT22;62797;49.740;10.154;2023-01-15T01:21:36;11.20;58.70
74364;DHT22;62797;49.740;10.154;2023-01-15T01:24:02;11.10;59.80
74364;DHT22;62797;49.740;10.154;2023-01-15T01:26:28;11.10;59.40
74364;DHT22;62797;49.740;10.154;2023-01-15T01:28:55;11.10;59.70
74364;DHT22;62797;49.740;10.154;2023-01-15T01:31:21;11.10;60.00
74364;DHT22;62797;49.740;10.154;2023-01-15T01:33:51;11.10;59.50
74364;DHT22;62797;49.740;10.154;2023-01-15T01:36:18;11.10;59.80
74364;DHT22;62797;49.740;10.154;2023-01-15T01:38:47;11.10;60.00
74364;DHT22;62797;49.740;10.154;2023-01-15T01:41:15;11.10;60.90
74364;DHT22;62797;49.740;10.154;2023-01-15T01:44:00;11.20;59.30
74364;DHT22;62797;49.740;10.154;2023-01-15T01:46:27;11.30;58.30
74364;DHT22;62797;49.740;10.154;2023-01-15T01:48:57;11.30;58.40
74364;DHT22;62797;49.740;10.154;2023-01-15T01:51:26;11.30;59.10
74364;DHT22;62797;49.740;10.154;2023-01-15T01:53:54;11.30;58.90
74364;DHT22;62797;49.740;10.154;2023-01-15T01:56:20;11.20;59.10
74364;DHT22;62797;49.740;10.154;2023-01-15T01:58:50;11.20;58.90
74364;DHT22;62797;49.740;10.154;2023-01-15T02:01:17;11.40;57.60
74364;DHT22;62797;49.740;10.154;2023-01-15T02:03:43;11.30;58.50
74364;DHT22;62797;49.740;10.154;2023-01-15T02:06:10;11.30;58.50
74364;DHT22;62797;49.740;10.154;2023-01-15T02:08:37;11.40;57.90
74364;DHT22;62797;49.740;10.154;2023-01-15T02:11:05;11.40;58.10
74364;DHT22;62797;49.740;10.154;2023-01-15T02:14:21;11.40;57.60
74364;DHT22;62797;49.740;10.154;2023-01-15T02:16:36;11.40;58.70
74364;DHT22;62797;49.740;10.154;2023-01-15T02:19:13;11.40;57.90
74364;DHT22;62797;49.740;10.154;2023-01-15T02:21:59;11.50;58.20
74364;DHT22;62797;49.740;10.154;2023-01-15T02:27:33;11.40;58.80
74364;DHT22;62797;49.740;10.154;2023-01-15T02:30:16;11.30;60.30
74364;DHT22;62797;49.740;10.154;2023-01-15T02:32:50;11.20;61.60
74364;DHT22;62797;49.740;10.154;2023-01-15T02:35:21;11.10;62.60
74364;DHT22;62797;49.740;10.154;2023-01-15T02:37:52;11.10;63.20
74364;DHT22;62797;49.740;10.154;2023-01-15T02:40:20;11.10;63.90
74364;DHT22;62797;49.740;10.154;2023-01-15T02:42:48;11.00;64.30
74364;DHT22;62797;49.740;10.154;2023-01-15T02:45:17;11.10;64.70
74364;DHT22;62797;49.740;10.154;2023-01-15T02:47:49;11.00;65.40
74364;DHT22;62797;49.740;10.154;2023-01-15T02:50:20;10.90;66.50
74364;DHT22;62797;49.740;10.154;2023-01-15T02:52:50;10.80;67.80
74364;DHT22;62797;49.740;10.154;2023-01-15T02:55:31;10.70;68.80
74364;DHT22;62797;49.740;10.154;2023-01-15T02:58:01;10.60;69.90
74364;DHT22;62797;49.740;10.154;2023-01-15T03:00:31;10.50;70.50
74364;DHT22;62797;49.740;10.154;2023-01-15T03:03:02;10.50;71.80
74364;DHT22;62797;49.740;10.154;2023-01-15T03:05:39;10.50;72.10
74364;DHT22;62797;49.740;10.154;2023-01-15T03:08:07;10.40;72.70
74364;DHT22;62797;49.740;10.154;2023-01-15T03:10:51;10.40;73.60
74364;DHT22;62797;49.740;10.154;2023-01-15T03:13:51;10.30;74.70
74364;DHT22;62797;49.740;10.154;2023-01-15T03:16:30;10.20;75.00
74364;DHT22;62797;49.740;10.154;2023-01-15T03:19:30;10.20;75.50
74364;DHT22;62797;49.740;10.154;2023-01-15T03:24:42;10.10;77.40
74364;DHT22;62797;49.740;10.154;2023-01-15T03:27:08;10.00;77.70
74364;DHT22;62797;49.740;10.154;2023-01-15T03:29:40;10.10;77.20
74364;DHT22;62797;49.740;10.154;2023-01-15T03:32:07;10.10;78.10
74364;DHT22;62797;49.740;10.154;2023-01-15T03:34:39;10.00;77.90
74364;DHT22;62797;49.740;10.154;2023-01-15T03:37:06;10.10;77.90
74364;DHT22;62797;49.740;10.154;2023-01-15T03:39:32;10.00;78.30
74364;DHT22;62797;49.740;10.154;2023-01-15T03:44:47;10.00;78.40
74364;DHT22;62797;49.740;10.154;2023-01-15T03:50:26;10.00;78.80
74364;DHT22;62797;49.740;10.154;2023-01-15T03:53:17;10.00;79.00
74364;DHT22;62797;49.740;10.154;2023-01-15T03:55:53;10.00;79.00
74364;DHT22;62797;49.740;10.154;2023-01-15T03:58:29;10.00;79.60
74364;DHT22;62797;49.740;10.154;2023-01-15T04:01:01;10.00;79.60
74364;DHT22;62797;49.740;10.154;2023-01-15T04:03:29;10.10;78.90
74364;DHT22;62797;49.740;10.154;2023-01-15T04:05:59;10.00;79.30
74364;DHT22;62797;49.740;10.154;2023-01-15T04:08:37;10.10;79.50
74364;DHT22;62797;49.740;10.154;2023-01-15T04:11:04;10.00;79.80
74364;DHT22;62797;49.740;10.154;2023-01-15T04:13:30;10.00;79.80
74364;DHT22;62797;49.740;10.154;2023-01-15T04:15:55;10.00;80.10
74364;DHT22;62797;49.740;10.154;2023-01-15T04:18:21;10.00;80.30
74364;DHT22;62797;49.740;10.154;2023-01-15T04:20:47;9.90;80.90
74364;DHT22;62797;49.740;10.154;2023-01-15T04:23:13;10.00;80.60
74364;DHT22;62797;49.740;10.154;2023-01-15T04:25:39;10.00;80.50
74364;DHT22;62797;49.740;10.154;2023-01-15T04:28:06;10.00;80.70
74364;DHT22;62797;49.740;10.154;2023-01-15T04:30:32;9.90;81.10
74364;DHT22;62797;49.740;10.154;2023-01-15T04:32:57;9.90;81.50
74364;DHT22;62797;49.740;10.154;2023-01-15T04:35:23;9.90;82.20
74364;DHT22;62797;49.740;10.154;2023-01-15T04:37:48;9.90;81.80
74364;DHT22;62797;49.740;10.154;2023-01-15T04:40:18;9.90;81.70
74364;DHT22;62797;49.740;10.154;2023-01-15T04:43:02;9.90;82.10
74364;DHT22;62797;49.740;10.154;2023-01-15T04:45:46;9.90;82.10
74364;DHT22;62797;49.740;10.154;2023-01-15T04:48:12;9.90;82.10
74364;DHT22;62797;49.740;10.154;2023-01-15T04:50:38;9.90;82.40
74364;DHT22;62797;49.740;10.154;2023-01-15T04:53:04;9.70;81.60
74364;DHT22;62797;49.740;10.154;2023-01-15T04:55:29;9.50;78.10
74364;DHT22;62797;49.740;10.154;2023-01-15T04:57:55;9.20;77.70
74364;DHT22;62797;49.740;10.154;2023-01-15T05:00:21;9.10;79.90
74364;DHT22;62797;49.740;10.154;2023-01-15T05:02:47;8.90;80.30
74364;DHT22;62797;49.740;10.154;2023-01-15T05:05:13;8.80;78.30
74364;DHT22;62797;49.740;10.154;2023-01-15T05:07:39;8.50;77.30
74364;DHT22;62797;49.740;10.154;2023-01-15T05:10:05;8.30;77.80
74364;DHT22;62797;49.740;10.154;2023-01-15T05:12:30;8.10;79.00
74364;DHT22;62797;49.740;10.154;2023-01-15T05:14:56;7.80;78.90
74364;DHT22;62797;49.740;10.154;2023-01-15T05:17:21;7.80;80.10
74364;DHT22;62797;49.740;10.154;2023-01-15T05:19:47;7.60;79.70
74364;DHT22;62797;49.740;10.154;2023-01-15T05:22:12;7.60;79.00
74364;DHT22;62797;49.740;10.154;2023-01-15T05:24:38;7.50;79.50
74364;DHT22;62797;49.740;10.154;2023-01-15T05:27:03;7.40;80.00
74364;DHT22;62797;49.740;10.154;2023-01-15T05:29:30;7.40;79.60
74364;DHT22;62797;49.740;10.154;2023-01-15T05:31:56;7.30;80.20
74364;DHT22;62797;49.740;10.154;2023-01-15T05:34:22;7.20;80.20
74364;DHT22;62797;49.740;10.154;2023-01-15T05:36:47;7.30;81.30
74364;DHT22;62797;49.740;10.154;2023-01-15T05:39:13;7.20;80.50
74364;DHT22;62797;49.740;10.154;2023-01-15T05:41:39;7.10;79.30
74364;DHT22;62797;49.740;10.154;2023-01-15T05:44:19;7.10;80.90
74364;DHT22;62797;49.740;10.154;2023-01-15T05:46:46;7.10;81.30
74364;DHT22;62797;49.740;10.154;2023-01-15T05:49:14;7.10;81.20
74364;DHT22;62797;49.740;10.154;2023-01-15T05:51:40;7.10;81.10
74364;DHT22;62797;49.740;10.154;2023-01-15T05:54:10;7.00;79.50
74364;DHT22;62797;49.740;10.154;2023-01-15T05:56:36;6.90;78.50
74364;DHT22;62797;49.740;10.154;2023-01-15T05:59:02;6.90;79.50
74364;DHT22;62797;49.740;10.154;2023-01-15T06:01:28;6.80;78.80
74364;DHT22;62797;49.740;10.154;2023-01-15T06:03:54;6.80;79.20
74364;DHT22;62797;49.740;10.154;2023-01-15T06:06:21;6.70;78.60
74364;DHT22;62797;49.740;10.154;2023-01-15T06:08:47;6.70;79.50
74364;DHT22;62797;49.740;10.154;2023-01-15T06:11:12;6.70;80.00
74364;DHT22;62797;49.740;10.154;2023-01-15T06:13:39;6.70;80.20
74364;DHT22;62797;49.740;10.154;2023-01-15T06:16:05;6.70;80.00
74364;DHT22;62797;49.740;10.154;2023-01-15T06:18:31;6.70;78.80
74364;DHT22;62797;49.740;10.154;2023-01-15T06:21:04;6.60;79.20
74364;DHT22;62797;49.740;10.154;2023-01-15T06:23:31;6.60;79.70
74364;DHT22;62797;49.740;10.154;2023-01-15T06:26:00;6.50;79.90
74364;DHT22;62797;49.740;10.154;2023-01-15T06:28:27;6.40;79.40
74364;DHT22;62797;49.740;10.154;2023-01-15T06:30:52;6.40;79.60
74364;DHT22;62797;49.740;10.154;2023-01-15T06:33:18;6.30;79.70
74364;DHT22;62797;49.740;10.154;2023-01-15T06:35:43;6.30;79.90
74364;DHT22;62797;49.740;10.154;2023-01-15T06:38:09;6.30;79.30
74364;DHT22;62797;49.740;10.154;2023-01-15T06:40:35;6.20;79.50
74364;DHT22;62797;49.740;10.154;2023-01-15T06:43:01;6.10;77.10
74364;DHT22;62797;49.740;10.154;2023-01-15T06:45:45;6.00;76.40
74364;DHT22;62797;49.740;10.154;2023-01-15T06:48:29;5.90;77.70
74364;DHT22;62797;49.740;10.154;2023-01-15T06:50:55;5.90;79.10
74364;DHT22;62797;49.740;10.154;2023-01-15T06:53:20;5.80;77.30
74364;DHT22;62797;49.740;10.154;2023-01-15T06:55:46;5.60;78.40
74364;DHT22;62797;49.740;10.154;2023-01-15T06:58:12;5.60;78.90
74364;DHT22;62797;49.740;10.154;2023-01-15T07:00:38;5.60;79.30
74364;DHT22;62797;49.740;10.154;2023-01-15T07:03:07;5.40;75.80
74364;DHT22;62797;49.740;10.154;2023-01-15T07:05:32;5.40;77.20
74364;DHT22;62797;49.740;10.154;2023-01-15T07:07:58;5.20;75.20
74364;DHT22;62797;49.740;10.154;2023-01-15T07:10:23;5.30;77.90
74364;DHT22;62797;49.740;10.154;2023-01-15T07:12:49;5.10;76.10
74364;DHT22;62797;49.740;10.154;2023-01-15T07:15:15;5.10;77.60
74364;DHT22;62797;49.740;10.154;2023-01-15T07:17:40;5.10;76.80
74364;DHT22;62797;49.740;10.154;2023-01-15T07:20:06;5.10;77.40
74364;DHT22;62797;49.740;10.154;2023-01-15T07:22:32;5.00;77.00
74364;DHT22;62797;49.740;10.154;2023-01-15T07:24:58;4.90;78.00
74364;DHT22;62797;49.740;10.154;2023-01-15T07:27:23;4.90;78.50
74364;DHT22;62797;49.740;10.154;2023-01-15T07:29:49;4.80;77.90
74364;DHT22;62797;49.740;10.154;2023-01-15T07:32:16;4.80;79.20
74364;DHT22;62797;49.740;10.154;2023-01-15T07:34:42;4.80;79.50
74364;DHT22;62797;49.740;10.154;2023-01-15T07:37:07;4.80;80.00
74364;DHT22;62797;49.740;10.154;2023-01-15T07:39:33;4.80;79.60
74364;DHT22;62797;49.740;10.154;2023-01-15T07:41:59;4.80;78.70
74364;DHT22;62797;49.740;10.154;2023-01-15T07:44:43;4.80;78.80
74364;DHT22;62797;49.740;10.154;2023-01-15T07:47:27;4.70;77.60
74364;DHT22;62797;49.740;10.154;2023-01-15T07:50:14;4.70;78.20
74364;DHT22;62797;49.740;10.154;2023-01-15T07:52:40;4.70;78.90
74364;DHT22;62797;49.740;10.154;2023-01-15T07:55:06;4.70;77.70
74364;DHT22;62797;49.740;10.154;2023-01-15T07:57:33;4.70;78.00
74364;DHT22;62797;49.740;10.154;2023-01-15T07:59:58;4.70;76.70
74364;DHT22;62797;49.740;10.154;2023-01-15T08:02:24;4.70;77.70
74364;DHT22;62797;49.740;10.154;2023-01-15T08:04:49;4.60;75.80
74364;DHT22;62797;49.740;10.154;2023-01-15T08:07:15;4.60;77.00
74364;DHT22;62797;49.740;10.154;2023-01-15T08:09:41;4.60;76.90
74364;DHT22;62797;49.740;10.154;2023-01-15T08:12:06;4.60;75.70
74364;DHT22;62797;49.740;10.154;2023-01-15T08:14:50;4.50;76.50
74364;DHT22;62797;49.740;10.154;2023-01-15T08:17:35;4.50;76.40
74364;DHT22;62797;49.740;10.154;2023-01-15T08:20:07;4.50;78.30
74364;DHT22;62797;49.740;10.154;2023-01-15T08:22:33;4.50;78.20
74364;DHT22;62797;49.740;10.154;2023-01-15T08:24:59;4.50;78.70
74364;DHT22;62797;49.740;10.154;2023-01-15T08:27:25;4.70;79.00
74364;DHT22;62797;49.740;10.154;2023-01-15T08:29:51;4.50;78.00
74364;DHT22;62797;49.740;10.154;2023-01-15T08:32:17;4.50;76.60
74364;DHT22;62797;49.740;10.154;2023-01-15T08:34:42;4.50;77.90
74364;DHT22;62797;49.740;10.154;2023-01-15T08:37:08;4.40;77.90
74364;DHT22;62797;49.740;10.154;2023-01-15T08:39:34;4.40;78.30
74364;DHT22;62797;49.740;10.154;2023-01-15T08:41:59;4.50;79.20
74364;DHT22;62797;49.740;10.154;2023-01-15T08:44:25;4.60;79.70
74364;DHT22;62797;49.740;10.154;2023-01-15T08:46:51;4.50;77.80
74364;DHT22;62797;49.740;10.154;2023-01-15T08:49:18;4.50;77.90
74364;DHT22;62797;49.740;10.154;2023-01-15T08:51:44;4.40;76.50
74364;DHT22;62797;49.740;10.154;2023-01-15T08:54:14;4.40;76.40
74364;DHT22;62797;49.740;10.154;2023-01-15T08:56:40;4.40;78.50
74364;DHT22;62797;49.740;10.154;2023-01-15T08:59:05;4.40;77.30
74364;DHT22;62797;49.740;10.154;2023-01-15T09:01:32;4.50;78.70
74364;DHT22;62797;49.740;10.154;2023-01-15T09:03:57;4.40;76.40
74364;DHT22;62797;49.740;10.154;2023-01-15T09:06:23;4.40;76.60
74364;DHT22;62797;49.740;10.154;2023-01-15T09:08:49;4.40;77.40
74364;DHT22;62797;49.740;10.154;2023-01-15T09:11:14;4.30;77.40
74364;DHT22;62797;49.740;10.154;2023-01-15T09:13:40;4.40;78.50
74364;DHT22;62797;49.740;10.154;2023-01-15T09:16:06;4.40;78.50
74364;DHT22;62797;49.740;10.154;2023-01-15T09:18:32;4.40;76.80
74364;DHT22;62797;49.740;10.154;2023-01-15T09:20:59;4.40;76.90
74364;DHT22;62797;49.740;10.154;2023-01-15T09:23:25;4.40;76.90
74364;DHT22;62797;49.740;10.154;2023-01-15T09:25:54;4.40;77.20
74364;DHT22;62797;49.740;10.154;2023-01-15T09:28:20;4.40;76.70
74364;DHT22;62797;49.740;10.154;2023-01-15T09:30:46;4.30;76.70
74364;DHT22;62797;49.740;10.154;2023-01-15T09:33:12;4.40;76.90
74364;DHT22;62797;49.740;10.154;2023-01-15T09:35:38;4.40;77.40
74364;DHT22;62797;49.740;10.154;2023-01-15T09:38:03;4.40;77.50
74364;DHT22;62797;49.740;10.154;2023-01-15T09:40:52;4.50;78.20
74364;DHT22;62797;49.740;10.154;2023-01-15T09:43:53;4.60;78.80
74364;DHT22;62797;49.740;10.154;2023-01-15T09:46:35;4.60;79.10
74364;DHT22;62797;49.740;10.154;2023-01-15T09:51:56;4.70;78.90
74364;DHT22;62797;49.740;10.154;2023-01-15T09:57:16;4.70;77.90
74364;DHT22;62797;49.740;10.154;2023-01-15T09:59:48;4.70;78.10
74364;DHT22;62797;49.740;10.154;2023-01-15T10:02:28;4.80;78.50
74364;DHT22;62797;49.740;10.154;2023-01-15T10:05:08;4.70;78.10
74364;DHT22;62797;49.740;10.154;2023-01-15T10:10:22;4.70;79.20
74364;DHT22;62797;49.740;10.154;2023-01-15T10:12:53;4.80;79.00
74364;DHT22;62797;49.740;10.154;2023-01-15T10:15:44;4.80;78.60
74364;DHT22;62797;49.740;10.154;2023-01-15T10:18:18;4.80;78.80
74364;DHT22;62797;49.740;10.154;2023-01-15T10:26:54;4.90;78.90
74364;DHT22;62797;49.740;10.154;2023-01-15T10:30:14;4.80;80.40
74364;DHT22;62797;49.740;10.154;2023-01-15T10:32:46;4.90;80.30
74364;DHT22;62797;49.740;10.154;2023-01-15T10:38:43;5.00;81.10
74364;DHT22;62797;49.740;10.154;2023-01-15T10:41:23;5.10;81.30
74364;DHT22;62797;49.740;10.154;2023-01-15T10:44:10;5.10;80.70
74364;DHT22;62797;49.740;10.154;2023-01-15T10:46:39;5.10;80.90
74364;DHT22;62797;49.740;10.154;2023-01-15T10:49:28;5.10;80.80
74364;DHT22;62797;49.740;10.154;2023-01-15T10:52:21;5.10;80.30
74364;DHT22;62797;49.740;10.154;2023-01-15T10:54:47;5.10;80.40
74364;DHT22;62797;49.740;10.154;2023-01-15T10:59:46;5.10;80.60
74364;DHT22;62797;49.740;10.154;2023-01-15T11:02:40;5.10;79.50
74364;DHT22;62797;49.740;10.154;2023-01-15T11:05:15;5.20;79.20
74364;DHT22;62797;49.740;10.154;2023-01-15T11:07:47;5.20;77.90
74364;DHT22;62797;49.740;10.154;2023-01-15T11:10:15;5.10;78.40
74364;DHT22;62797;49.740;10.154;2023-01-15T11:12:55;5.20;79.20
74364;DHT22;62797;49.740;10.154;2023-01-15T11:15:44;5.20;77.20
74364;DHT22;62797;49.740;10.154;2023-01-15T11:18:34;5.20;76.10
74364;DHT22;62797;49.740;10.154;2023-01-15T11:21:21;5.20;76.60
74364;DHT22;62797;49.740;10.154;2023-01-15T11:23:48;5.10;75.50
74364;DHT22;62797;49.740;10.154;2023-01-15T11:26:27;5.10;73.60
74364;DHT22;62797;49.740;10.154;2023-01-15T11:28:54;5.10;74.80
74364;DHT22;62797;49.740;10.154;2023-01-15T11:31:21;5.00;76.00
74364;DHT22;62797;49.740;10.154;2023-01-15T11:33:57;4.90;76.80
74364;DHT22;62797;49.740;10.154;2023-01-15T11:36:24;4.90;77.60
74364;DHT22;62797;49.740;10.154;2023-01-15T11:38:51;4.80;75.60
74364;DHT22;62797;49.740;10.154;2023-01-15T11:41:21;4.80;74.60
74364;DHT22;62797;49.740;10.154;2023-01-15T11:43:57;4.70;76.20
74364;DHT22;62797;49.740;10.154;2023-01-15T11:46:41;4.20;69.90
74364;DHT22;62797;49.740;10.154;2023-01-15T11:49:28;3.90;69.90
74364;DHT22;62797;49.740;10.154;2023-01-15T11:52:17;3.80;71.20
74364;DHT22;62797;49.740;10.154;2023-01-15T11:54:47;3.70;71.60
74364;DHT22;62797;49.740;10.154;2023-01-15T11:57:30;3.60;71.30
74364;DHT22;62797;49.740;10.154;2023-01-15T11:59:56;3.50;72.50
74364;DHT22;62797;49.740;10.154;2023-01-15T12:02:33;3.60;75.00
74364;DHT22;62797;49.740;10.154;2023-01-15T12:05:19;3.50;74.00
74364;DHT22;62797;49.740;10.154;2023-01-15T12:07:47;3.50;76.40
74364;DHT22;62797;49.740;10.154;2023-01-15T12:13:27;3.60;76.80
74364;DHT22;62797;49.740;10.154;2023-01-15T12:19:15;3.60;78.00
74364;DHT22;62797;49.740;10.154;2023-01-15T12:27:05;3.80;78.80
74364;DHT22;62797;49.740;10.154;2023-01-15T12:29:43;3.80;78.10
74364;DHT22;62797;49.740;10.154;2023-01-15T12:32:14;3.90;78.90
74364;DHT22;62797;49.740;10.154;2023-01-15T12:37:25;4.10;76.10
74364;DHT22;62797;49.740;10.154;2023-01-15T12:39:59;4.20;76.40
74364;DHT22;62797;49.740;10.154;2023-01-15T12:42:28;4.20;77.10
74364;DHT22;62797;49.740;10.154;2023-01-15T12:45:23;4.20;75.70
74364;DHT22;62797;49.740;10.154;2023-01-15T12:50:47;4.30;73.80
74364;DHT22;62797;49.740;10.154;2023-01-15T12:53:21;4.40;73.40
74364;DHT22;62797;49.740;10.154;2023-01-15T12:58:38;4.30;74.50
74364;DHT22;62797;49.740;10.154;2023-01-15T13:01:23;4.30;72.70
74364;DHT22;62797;49.740;10.154;2023-01-15T13:04:38;4.30;75.00
74364;DHT22;62797;49.740;10.154;2023-01-15T13:06:53;4.40;75.50
74364;DHT22;62797;49.740;10.154;2023-01-15T13:12:32;4.30;75.20
74364;DHT22;62797;49.740;10.154;2023-01-15T13:15:03;4.30;76.40
74364;DHT22;62797;49.740;10.154;2023-01-15T13:20:48;4.30;76.60
74364;DHT22;62797;49.740;10.154;2023-01-15T13:37:26;4.20;78.30
74364;DHT22;62797;49.740;10.154;2023-01-15T13:40:02;4.30;78.50
74364;DHT22;62797;49.740;10.154;2023-01-15T13:42:29;4.30;77.30
74364;DHT22;62797;49.740;10.154;2023-01-15T13:44:56;4.30;76.60
74364;DHT22;62797;49.740;10.154;2023-01-15T13:47:27;4.30;77.10
74364;DHT22;62797;49.740;10.154;2023-01-15T13:50:17;4.30;76.20
74364;DHT22;62797;49.740;10.154;2023-01-15T13:52:44;4.30;77.40
74364;DHT22;62797;49.740;10.154;2023-01-15T13:55:30;4.20;77.60
74364;DHT22;62797;49.740;10.154;2023-01-15T13:57:57;4.40;78.10
74364;DHT22;62797;49.740;10.154;2023-01-15T14:00:28;4.50;78.10
74364;DHT22;62797;49.740;10.154;2023-01-15T14:02:59;4.60;74.70
74364;DHT22;62797;49.740;10.154;2023-01-15T14:07:51;4.50;77.60
74364;DHT22;62797;49.740;10.154;2023-01-15T14:18:37;4.90;77.40
74364;DHT22;62797;49.740;10.154;2023-01-15T14:21:40;5.10;75.10
74364;DHT22;62797;49.740;10.154;2023-01-15T14:26:53;5.20;71.60
74364;DHT22;62797;49.740;10.154;2023-01-15T14:29:44;5.40;73.50
74364;DHT22;62797;49.740;10.154;2023-01-15T14:32:34;5.80;75.90
74364;DHT22;62797;49.740;10.154;2023-01-15T14:35:12;5.90;71.70
74364;DHT22;62797;49.740;10.154;2023-01-15T14:37:48;5.90;69.80
74364;DHT22;62797;49.740;10.154;2023-01-15T14:40:21;5.90;70.40
74364;DHT22;62797;49.740;10.154;2023-01-15T14:42:50;5.80;69.40
74364;DHT22;62797;49.740;10.154;2023-01-15T14:51:10;5.50;65.50
74364;DHT22;62797;49.740;10.154;2023-01-15T14:53:41;5.10;67.20
74364;DHT22;62797;49.740;10.154;2023-01-15T14:56:32;4.90;66.70
74364;DHT22;62797;49.740;10.154;2023-01-15T14:59:20;4.70;67.10
74364;DHT22;62797;49.740;10.154;2023-01-15T15:01:55;4.80;70.30
74364;DHT22;62797;49.740;10.154;2023-01-15T15:04:45;5.00;69.30
74364;DHT22;62797;49.740;10.154;2023-01-15T15:07:20;5.10;66.50
74364;DHT22;62797;49.740;10.154;2023-01-15T15:10:13;5.00;69.40
74364;DHT22;62797;49.740;10.154;2023-01-15T15:23:36;4.30;70.40
74364;DHT22;62797;49.740;10.154;2023-01-15T15:26:20;4.30;68.40
74364;DHT22;62797;49.740;10.154;2023-01-15T15:28:57;4.20;69.40
74364;DHT22;62797;49.740;10.154;2023-01-15T15:31:25;4.10;70.00
74364;DHT22;62797;49.740;10.154;2023-01-15T15:33:53;4.00;70.40
74364;DHT22;62797;49.740;10.154;2023-01-15T15:36:20;4.00;70.10
74364;DHT22;62797;49.740;10.154;2023-01-15T15:38:58;3.90;70.50
74364;DHT22;62797;49.740;10.154;2023-01-15T15:41:30;3.90;70.00
74364;DHT22;62797;49.740;10.154;2023-01-15T15:44:22;3.80;70.90
74364;DHT22;62797;49.740;10.154;2023-01-15T15:47:20;3.80;70.70
74364;DHT22;62797;49.740;10.154;2023-01-15T15:50:06;3.80;70.50
74364;DHT22;62797;49.740;10.154;2023-01-15T15:52:33;3.80;70.00
74364;DHT22;62797;49.740;10.154;2023-01-15T15:55:01;3.80;70.20
74364;DHT22;62797;49.740;10.154;2023-01-15T15:57:31;3.70;70.70
74364;DHT22;62797;49.740;10.154;2023-01-15T15:59:58;3.70;71.20
74364;DHT22;62797;49.740;10.154;2023-01-15T16:02:38;3.70;72.00
74364;DHT22;62797;49.740;10.154;2023-01-15T16:07:43;3.90;69.10
74364;DHT22;62797;49.740;10.154;2023-01-15T16:10:33;4.00;68.90
74364;DHT22;62797;49.740;10.154;2023-01-15T16:13:03;4.00;68.90
74364;DHT22;62797;49.740;10.154;2023-01-15T16:15:32;4.00;69.50
74364;DHT22;62797;49.740;10.154;2023-01-15T16:17:59;4.10;69.10
74364;DHT22;62797;49.740;10.154;2023-01-15T16:20:26;4.10;69.00
74364;DHT22;62797;49.740;10.154;2023-01-15T16:22:56;4.10;68.20
74364;DHT22;62797;49.740;10.154;2023-01-15T16:25:35;4.10;68.80
74364;DHT22;62797;49.740;10.154;2023-01-15T16:28:02;4.20;68.00
74364;DHT22;62797;49.740;10.154;2023-01-15T16:30:29;4.20;67.70
74364;DHT22;62797;49.740;10.154;2023-01-15T16:33:04;4.30;68.40
74364;DHT22;62797;49.740;10.154;2023-01-15T16:35:33;4.40;68.10
74364;DHT22;62797;49.740;10.154;2023-01-15T16:38:00;4.30;66.80
74364;DHT22;62797;49.740;10.154;2023-01-15T16:40:27;4.40;67.50
74364;DHT22;62797;49.740;10.154;2023-01-15T16:43:17;4.40;65.50
74364;DHT22;62797;49.740;10.154;2023-01-15T16:48:24;4.20;66.00
74364;DHT22;62797;49.740;10.154;2023-01-15T16:50:52;4.20;64.50
74364;DHT22;62797;49.740;10.154;2023-01-15T16:53:38;4.20;64.70
74364;DHT22;62797;49.740;10.154;2023-01-15T16:58:56;4.30;62.70
74364;DHT22;62797;49.740;10.154;2023-01-15T17:04:20;4.20;62.40
74364;DHT22;62797;49.740;10.154;2023-01-15T17:07:19;4.20;63.00
74364;DHT22;62797;49.740;10.154;2023-01-15T17:10:20;4.20;62.60
74364;DHT22;62797;49.740;10.154;2023-01-15T17:12:46;4.20;62.70
74364;DHT22;62797;49.740;10.154;2023-01-15T17:17:48;4.20;61.90
74364;DHT22;62797;49.740;10.154;2023-01-15T17:20:15;4.20;62.50
74364;DHT22;62797;49.740;10.154;2023-01-15T17:22:42;4.30;62.30
74364;DHT22;62797;49.740;10.154;2023-01-15T17:27:53;4.10;63.20
74364;DHT22;62797;49.740;10.154;2023-01-15T17:30:20;4.20;61.50
74364;DHT22;62797;49.740;10.154;2023-01-15T17:32:46;4.30;61.40
74364;DHT22;62797;49.740;10.154;2023-01-15T17:35:23;4.30;61.50
74364;DHT22;62797;49.740;10.154;2023-01-15T17:37:49;4.20;61.90
74364;DHT22;62797;49.740;10.154;2023-01-15T17:40:15;4.20;61.80
74364;DHT22;62797;49.740;10.154;2023-01-15T17:42:41;4.10;62.90
74364;DHT22;62797;49.740;10.154;2023-01-15T17:45:09;4.00;63.00
74364;DHT22;62797;49.740;10.154;2023-01-15T17:47:39;4.00;63.00
74364;DHT22;62797;49.740;10.154;2023-01-15T17:50:05;4.10;62.20
74364;DHT22;62797;49.740;10.154;2023-01-15T17:52:30;4.20;61.80